createdAt,value
2022-10-31T00:01:44.052Z,12.90
2022-10-31T00:04:11.392Z,12.90
2022-10-31T00:06:38.694Z,12.90
2022-10-31T00:09:06.114Z,12.80
2022-10-31T00:11:33.455Z,12.80
2022-10-31T00:14:00.806Z,12.90
2022-10-31T00:16:28.679Z,12.80
2022-10-31T00:18:58.051Z,12.80
2022-10-31T00:21:25.584Z,12.80
2022-10-31T00:23:52.948Z,12.80
2022-10-31T00:26:20.607Z,12.70
2022-10-31T00:28:48.297Z,12.70
2022-10-31T00:31:15.743Z,12.70
2022-10-31T00:33:43.110Z,12.70
2022-10-31T00:36:16.187Z,12.70
2022-10-31T00:38:44.265Z,12.70
2022-10-31T00:41:12.175Z,12.70
2022-10-31T00:43:42.676Z,12.70
2022-10-31T00:46:10.891Z,12.70
2022-10-31T00:48:38.301Z,12.70
2022-10-31T00:51:05.707Z,12.80
2022-10-31T00:53:33.519Z,12.80
2022-10-31T00:56:01.284Z,12.80
2022-10-31T00:58:28.640Z,12.80
2022-10-31T01:00:56.652Z,12.80
2022-10-31T01:03:30.110Z,12.80
2022-10-31T01:06:01.148Z,12.80
2022-10-31T01:08:28.800Z,12.70
2022-10-31T01:11:13.114Z,12.60
2022-10-31T01:13:41.580Z,12.70
2022-10-31T01:16:11.407Z,12.70
2022-10-31T01:18:38.769Z,12.70
2022-10-31T01:21:08.379Z,12.60
2022-10-31T01:23:36.105Z,12.70
2022-10-31T01:26:08.295Z,12.60
2022-10-31T01:28:37.141Z,12.60
2022-10-31T01:31:06.254Z,12.60
2022-10-31T01:33:35.487Z,12.60
2022-10-31T01:36:11.922Z,12.60
2022-10-31T01:38:39.275Z,12.50
2022-10-31T01:41:06.701Z,12.50
2022-10-31T01:43:48.415Z,12.50
2022-10-31T01:46:16.964Z,12.50
2022-10-31T01:48:44.362Z,12.50
2022-10-31T01:51:12.174Z,12.50
2022-10-31T01:53:39.474Z,12.50
2022-10-31T01:56:07.144Z,12.40
2022-10-31T01:58:34.473Z,12.40
2022-10-31T02:01:04.950Z,12.40
2022-10-31T02:03:35.141Z,12.40
2022-10-31T02:06:02.458Z,12.30
2022-10-31T02:08:31.141Z,12.40
2022-10-31T02:10:58.888Z,12.30
2022-10-31T02:15:59.372Z,12.40
2022-10-31T02:18:29.480Z,12.40
2022-10-31T02:21:21.853Z,12.30
2022-10-31T02:24:07.755Z,12.30
2022-10-31T02:26:53.855Z,12.20
2022-10-31T02:29:32.685Z,12.20
2022-10-31T02:31:59.959Z,12.10
2022-10-31T02:34:43.858Z,12.10
2022-10-31T02:37:15.413Z,12.10
2022-10-31T02:39:48.199Z,12.10
2022-10-31T02:42:35.024Z,12.10
2022-10-31T02:45:10.359Z,12.10
2022-10-31T02:47:38.483Z,12.10
2022-10-31T02:50:15.618Z,12.10
2022-10-31T02:52:42.979Z,12.00
2022-10-31T02:55:33.965Z,12.00
2022-10-31T02:58:16.032Z,12.00
2022-10-31T03:01:05.168Z,12.00
2022-10-31T03:03:58.302Z,12.00
2022-10-31T03:06:32.001Z,12.00
2022-10-31T03:09:10.895Z,12.00
2022-10-31T03:11:50.922Z,12.00
2022-10-31T03:14:23.639Z,12.00
2022-10-31T03:16:55.897Z,12.00
2022-10-31T03:19:31.518Z,11.90
2022-10-31T03:22:04.883Z,11.90
2022-10-31T03:24:35.298Z,11.90
2022-10-31T03:27:02.740Z,11.80
2022-10-31T03:29:33.706Z,11.90
2022-10-31T03:32:09.362Z,11.80
2022-10-31T03:34:37.468Z,11.80
2022-10-31T03:37:07.415Z,11.80
2022-10-31T03:39:34.864Z,11.80
2022-10-31T03:42:17.646Z,11.80
2022-10-31T03:44:51.441Z,11.80
2022-10-31T03:47:18.966Z,11.80
2022-10-31T03:49:49.576Z,11.80
2022-10-31T03:52:35.417Z,11.80
2022-10-31T03:55:48.135Z,11.80
2022-10-31T03:58:35.182Z,11.80
2022-10-31T04:01:02.920Z,11.70
2022-10-31T04:03:32.117Z,11.70
2022-10-31T04:06:03.619Z,11.70
2022-10-31T04:08:32.059Z,11.70
2022-10-31T04:10:59.988Z,11.70
2022-10-31T04:13:29.079Z,11.70
2022-10-31T04:16:14.215Z,11.70
2022-10-31T04:18:45.334Z,11.70
2022-10-31T04:21:12.678Z,11.60
2022-10-31T04:23:40.024Z,11.60
2022-10-31T04:26:21.994Z,11.60
2022-10-31T04:28:49.331Z,11.60
2022-10-31T04:31:16.729Z,11.60
2022-10-31T04:33:46.187Z,11.60
2022-10-31T04:36:13.539Z,11.60
2022-10-31T04:38:40.863Z,11.60
2022-10-31T04:41:17.560Z,11.60
2022-10-31T04:43:58.657Z,11.60
2022-10-31T04:46:28.016Z,11.50
2022-10-31T04:48:57.412Z,11.50
2022-10-31T04:51:25.091Z,11.50
2022-10-31T04:53:53.174Z,11.50
2022-10-31T04:56:43.676Z,11.50
2022-10-31T04:59:16.285Z,11.50
2022-10-31T05:01:51.213Z,11.50
2022-10-31T05:04:23.756Z,11.40
2022-10-31T05:06:51.128Z,11.40
2022-10-31T05:09:18.516Z,11.40
2022-10-31T05:11:45.871Z,11.40
2022-10-31T05:14:33.046Z,11.40
2022-10-31T05:17:20.268Z,11.40
2022-10-31T05:20:07.800Z,11.40
2022-10-31T05:22:58.485Z,11.30
2022-10-31T05:25:27.292Z,11.30
2022-10-31T05:27:55.057Z,11.30
2022-10-31T05:30:24.247Z,11.30
2022-10-31T05:32:52.011Z,11.30
2022-10-31T05:35:37.841Z,11.30
2022-10-31T05:38:28.267Z,11.30
2022-10-31T05:41:01.001Z,11.30
2022-10-31T05:43:29.799Z,11.30
2022-10-31T05:45:57.365Z,11.20
2022-10-31T05:48:47.501Z,11.30
2022-10-31T05:51:40.816Z,11.20
2022-10-31T05:54:13.292Z,11.20
2022-10-31T05:56:44.824Z,11.20
2022-10-31T05:59:12.142Z,11.20
2022-10-31T06:01:40.795Z,11.20
2022-10-31T06:04:19.544Z,11.20
2022-10-31T06:06:46.899Z,11.20
2022-10-31T06:09:14.268Z,11.20
2022-10-31T06:11:44.615Z,11.20
2022-10-31T06:14:31.862Z,11.30
2022-10-31T06:16:59.198Z,11.30
2022-10-31T06:19:44.973Z,11.30
2022-10-31T06:22:16.497Z,11.30
2022-10-31T06:24:44.730Z,11.40
2022-10-31T06:27:29.284Z,11.40
2022-10-31T06:29:58.075Z,11.40
2022-10-31T06:32:36.693Z,11.40
2022-10-31T06:35:04.409Z,11.40
2022-10-31T06:37:34.002Z,11.50
2022-10-31T06:40:09.140Z,11.50
2022-10-31T06:43:02.043Z,11.50
2022-10-31T06:45:31.250Z,11.50
2022-10-31T06:48:18.179Z,11.60
2022-10-31T06:51:09.056Z,11.60
2022-10-31T06:53:36.504Z,11.70
2022-10-31T06:56:05.426Z,11.70
2022-10-31T06:58:37.965Z,11.80
2022-10-31T07:01:07.753Z,11.80
2022-10-31T07:03:35.490Z,11.80
2022-10-31T07:06:03.172Z,11.90
2022-10-31T07:08:30.568Z,11.90
2022-10-31T07:10:59.086Z,12.00
2022-10-31T07:13:28.539Z,12.00
2022-10-31T07:16:05.388Z,12.10
2022-10-31T07:18:35.156Z,12.20
2022-10-31T07:21:03.281Z,12.30
2022-10-31T07:23:30.595Z,12.30
2022-10-31T07:26:23.706Z,12.40
2022-10-31T07:28:51.110Z,12.50
2022-10-31T07:31:22.930Z,12.50
2022-10-31T07:33:51.886Z,12.60
2022-10-31T07:36:42.275Z,12.60
2022-10-31T07:39:09.741Z,12.70
2022-10-31T07:41:37.369Z,12.80
2022-10-31T07:44:04.927Z,12.90
2022-10-31T07:46:50.615Z,13.00
2022-10-31T07:49:40.584Z,13.00
2022-10-31T07:52:30.514Z,13.10
2022-10-31T07:55:36.273Z,13.20
2022-10-31T07:58:05.620Z,13.30
2022-10-31T08:00:33.947Z,13.40
2022-10-31T08:03:02.913Z,13.50
2022-10-31T08:05:48.884Z,13.50
2022-10-31T08:08:48.066Z,13.60
2022-10-31T08:11:15.436Z,13.70
2022-10-31T08:13:44.005Z,13.80
2022-10-31T08:16:14.180Z,13.90
2022-10-31T08:18:51.653Z,14.00
2022-10-31T08:21:19.534Z,14.10
2022-10-31T08:23:47.129Z,14.20
2022-10-31T08:26:15.410Z,14.30
2022-10-31T08:28:44.358Z,14.40
2022-10-31T08:31:11.967Z,14.50
2022-10-31T08:33:41.861Z,14.50
2022-10-31T08:36:28.086Z,14.60
2022-10-31T08:39:24.384Z,14.70
2022-10-31T08:41:51.823Z,14.80
2022-10-31T08:44:19.231Z,14.90
2022-10-31T08:46:46.802Z,15.00
2022-10-31T08:49:15.280Z,15.00
2022-10-31T08:51:44.144Z,15.10
2022-10-31T08:54:11.570Z,15.20
2022-10-31T08:56:57.141Z,15.20
2022-10-31T08:59:34.795Z,15.30
2022-10-31T09:02:22.402Z,15.40
2022-10-31T09:04:52.183Z,15.50
2022-10-31T09:07:21.002Z,15.60
2022-10-31T09:09:49.112Z,15.70
2022-10-31T09:12:18.050Z,15.80
2022-10-31T09:15:09.358Z,15.90
2022-10-31T09:17:57.725Z,16.00
2022-10-31T09:20:25.186Z,16.10
2022-10-31T09:23:04.184Z,16.10
2022-10-31T09:25:33.134Z,16.20
2022-10-31T09:28:20.646Z,16.30
2022-10-31T09:30:49.546Z,16.40
2022-10-31T09:33:23.650Z,16.50
2022-10-31T09:36:06.884Z,16.60
2022-10-31T09:38:36.627Z,16.70
2022-10-31T09:41:22.201Z,16.80
2022-10-31T09:44:09.740Z,16.90
2022-10-31T09:47:00.924Z,17.00
2022-10-31T09:49:35.314Z,17.10
2022-10-31T09:52:29.211Z,17.10
2022-10-31T09:55:06.993Z,17.20
2022-10-31T09:57:36.617Z,17.20
2022-10-31T10:00:07.836Z,17.30
2022-10-31T10:02:55.975Z,17.30
2022-10-31T10:05:31.774Z,17.30
2022-10-31T10:08:17.255Z,17.40
2022-10-31T10:11:05.937Z,17.50
2022-10-31T10:14:09.046Z,17.60
2022-10-31T10:16:58.890Z,17.70
2022-10-31T10:19:29.249Z,17.80
2022-10-31T10:21:59.543Z,17.90
2022-10-31T10:24:26.819Z,17.90
2022-10-31T10:27:12.398Z,18.00
2022-10-31T10:29:44.291Z,18.10
2022-10-31T10:32:20.005Z,18.20
2022-10-31T10:34:51.461Z,18.40
2022-10-31T10:37:26.717Z,18.40
2022-10-31T10:39:57.428Z,18.40
2022-10-31T10:42:44.620Z,18.50
2022-10-31T10:45:38.293Z,18.60
2022-10-31T10:48:24.030Z,18.60
2022-10-31T10:50:52.442Z,18.70
2022-10-31T10:53:32.486Z,18.80
2022-10-31T10:56:20.571Z,18.80
2022-10-31T10:58:48.218Z,18.80
2022-10-31T11:03:48.260Z,18.90
2022-10-31T11:06:26.732Z,19.00
2022-10-31T11:08:54.348Z,19.10
2022-10-31T11:11:31.455Z,19.10
2022-10-31T11:14:04.510Z,19.20
2022-10-31T11:16:40.469Z,19.10
2022-10-31T11:19:20.264Z,19.20
2022-10-31T11:21:52.816Z,19.20
2022-10-31T11:24:23.650Z,19.20
2022-10-31T11:26:51.564Z,19.20
2022-10-31T11:29:25.720Z,19.30
2022-10-31T11:31:54.235Z,19.40
2022-10-31T11:34:29.009Z,19.50
2022-10-31T11:36:56.472Z,19.60
2022-10-31T11:39:25.030Z,19.70
2022-10-31T11:41:53.299Z,19.80
2022-10-31T11:44:27.954Z,19.90
2022-10-31T11:47:03.185Z,20.00
2022-10-31T11:49:38.761Z,20.00
2022-10-31T11:52:17.757Z,20.10
2022-10-31T11:54:56.324Z,20.20
2022-10-31T11:57:34.455Z,20.20
2022-10-31T12:00:04.303Z,20.30
2022-10-31T12:02:39.438Z,20.30
2022-10-31T12:05:22.689Z,20.30
2022-10-31T12:07:50.143Z,20.30
2022-10-31T12:10:17.619Z,20.20
2022-10-31T12:12:48.061Z,20.20
2022-10-31T12:15:36.428Z,20.10
2022-10-31T12:18:15.945Z,20.10
2022-10-31T12:21:06.586Z,20.00
2022-10-31T12:23:39.769Z,19.90
2022-10-31T12:26:16.181Z,19.90
2022-10-31T12:28:46.396Z,19.80
2022-10-31T12:31:37.523Z,19.80
2022-10-31T12:34:38.685Z,19.70
2022-10-31T12:37:11.897Z,19.70
2022-10-31T12:39:51.203Z,19.70
2022-10-31T12:42:21.517Z,19.70
2022-10-31T12:45:00.394Z,19.60
2022-10-31T12:47:54.294Z,19.70
2022-10-31T12:50:39.700Z,19.70
2022-10-31T12:54:04.140Z,19.70
2022-10-31T12:56:55.282Z,19.80
2022-10-31T12:59:25.629Z,19.80
2022-10-31T13:02:15.810Z,19.90
2022-10-31T13:04:59.342Z,20.00
2022-10-31T13:07:39.437Z,20.00
2022-10-31T13:10:20.873Z,20.10
2022-10-31T13:12:49.773Z,20.20
2022-10-31T13:15:22.919Z,20.10
2022-10-31T13:17:57.615Z,20.10
2022-10-31T13:20:29.028Z,20.10
2022-10-31T13:23:51.898Z,20.00
2022-10-31T13:26:50.348Z,20.00
2022-10-31T13:29:33.192Z,19.90
2022-10-31T13:32:07.251Z,19.90
2022-10-31T13:34:39.451Z,19.80
2022-10-31T13:37:32.235Z,19.80
2022-10-31T13:40:19.006Z,19.80
2022-10-31T13:43:00.175Z,19.70
2022-10-31T13:45:27.790Z,19.60
2022-10-31T13:48:02.315Z,19.60
2022-10-31T13:50:31.541Z,19.60
2022-10-31T13:53:17.711Z,19.60
2022-10-31T13:55:47.246Z,19.60
2022-10-31T13:58:28.584Z,19.50
2022-10-31T14:01:10.838Z,19.50
2022-10-31T14:04:03.595Z,19.40
2022-10-31T14:07:00.377Z,19.40
2022-10-31T14:09:33.049Z,19.40
2022-10-31T14:12:03.073Z,19.40
2022-10-31T14:14:43.679Z,19.40
2022-10-31T14:17:19.432Z,19.40
2022-10-31T14:19:59.898Z,19.40
2022-10-31T14:22:31.956Z,19.50
2022-10-31T14:24:59.506Z,19.50
2022-10-31T14:27:29.795Z,19.50
2022-10-31T14:29:57.101Z,19.50
2022-10-31T14:32:25.299Z,19.50
2022-10-31T14:34:58.585Z,19.50
2022-10-31T14:38:02.222Z,19.40
2022-10-31T14:40:54.410Z,19.40
2022-10-31T14:43:40.464Z,19.30
2022-10-31T14:46:14.733Z,19.20
2022-10-31T14:49:06.535Z,19.10
2022-10-31T14:51:40.034Z,19.10
2022-10-31T14:54:08.927Z,19.00
2022-10-31T14:56:38.546Z,19.00
2022-10-31T14:59:13.206Z,19.00
2022-10-31T15:01:40.919Z,19.00
2022-10-31T15:04:24.196Z,18.90
2022-10-31T15:07:05.501Z,18.80
2022-10-31T15:09:34.584Z,18.80
2022-10-31T15:12:02.674Z,18.70
2022-10-31T15:14:33.083Z,18.60
2022-10-31T15:17:02.368Z,18.60
2022-10-31T15:19:31.064Z,18.50
2022-10-31T15:21:58.481Z,18.50
2022-10-31T15:24:35.615Z,18.50
2022-10-31T15:27:05.076Z,18.40
2022-10-31T15:29:32.762Z,18.40
2022-10-31T15:32:02.065Z,18.40
2022-10-31T15:34:40.145Z,18.30
2022-10-31T15:37:26.879Z,18.20
2022-10-31T15:39:54.163Z,18.10
2022-10-31T15:42:28.778Z,18.10
2022-10-31T15:45:20.504Z,18.00
2022-10-31T15:48:05.598Z,18.00
2022-10-31T15:50:38.671Z,17.90
2022-10-31T15:53:07.173Z,17.90
2022-10-31T15:55:37.813Z,17.80
2022-10-31T15:58:14.761Z,17.70
2022-10-31T16:00:42.091Z,17.70
2022-10-31T16:03:15.644Z,17.60
2022-10-31T16:05:53.927Z,17.50
2022-10-31T16:08:25.318Z,17.50
2022-10-31T16:10:52.860Z,17.50
2022-10-31T16:13:23.707Z,17.50
2022-10-31T16:15:59.549Z,17.40
2022-10-31T16:18:40.990Z,17.30
2022-10-31T16:21:08.513Z,17.20
2022-10-31T16:23:35.833Z,17.10
2022-10-31T16:26:07.145Z,17.00
2022-10-31T16:28:37.178Z,16.90
2022-10-31T16:31:16.562Z,16.90
2022-10-31T16:33:44.372Z,16.80
2022-10-31T16:36:36.285Z,16.70
2022-10-31T16:39:04.459Z,16.70
2022-10-31T16:41:31.781Z,16.60
2022-10-31T16:43:59.133Z,16.50
2022-10-31T16:46:27.269Z,16.40
2022-10-31T16:48:54.985Z,16.40
2022-10-31T16:51:22.314Z,16.30
2022-10-31T16:53:52.654Z,16.20
2022-10-31T16:56:32.437Z,16.10
2022-10-31T16:59:03.958Z,16.10
2022-10-31T17:01:31.692Z,16.00
2022-10-31T17:03:59.228Z,15.90
2022-10-31T17:06:28.428Z,15.90
2022-10-31T17:08:55.807Z,15.80
2022-10-31T17:11:25.310Z,15.80
2022-10-31T17:13:52.695Z,15.70
2022-10-31T17:16:20.122Z,15.70
2022-10-31T17:18:47.595Z,15.60
2022-10-31T17:21:33.213Z,15.60
2022-10-31T17:24:00.614Z,15.50
2022-10-31T17:26:27.946Z,15.40
2022-10-31T17:28:56.038Z,15.40
2022-10-31T17:31:25.431Z,15.30
2022-10-31T17:34:02.005Z,15.30
2022-10-31T17:36:31.643Z,15.30
2022-10-31T17:38:59.073Z,15.30
2022-10-31T17:41:26.375Z,15.20
2022-10-31T17:43:57.370Z,15.20
2022-10-31T17:46:24.707Z,15.10
2022-10-31T17:48:52.050Z,15.10
2022-10-31T17:51:19.346Z,15.00
2022-10-31T17:53:46.967Z,15.00
2022-10-31T17:56:14.292Z,15.00
2022-10-31T17:58:41.705Z,15.00
2022-10-31T18:01:10.607Z,14.90
2022-10-31T18:03:38.358Z,14.90
2022-10-31T18:06:05.902Z,14.80
2022-10-31T18:08:35.075Z,14.80
2022-10-31T18:11:10.886Z,14.70
2022-10-31T18:13:38.388Z,14.70
2022-10-31T18:16:10.084Z,14.60
2022-10-31T18:18:37.470Z,14.60
2022-10-31T18:21:04.945Z,14.60
2022-10-31T18:23:32.306Z,14.50
2022-10-31T18:25:59.640Z,14.50
2022-10-31T18:28:27.015Z,14.40
2022-10-31T18:30:54.287Z,14.40
2022-10-31T18:33:21.642Z,14.40
2022-10-31T18:35:49.010Z,14.40
2022-10-31T18:38:16.384Z,14.30
2022-10-31T18:40:43.702Z,14.30
2022-10-31T18:43:10.998Z,14.30
2022-10-31T18:45:47.182Z,14.20
2022-10-31T18:48:15.624Z,14.20
2022-10-31T18:50:43.347Z,14.10
2022-10-31T18:53:10.761Z,14.10
2022-10-31T18:55:45.366Z,14.10
2022-10-31T18:58:17.796Z,14.10
2022-10-31T19:00:46.009Z,14.10
2022-10-31T19:03:14.270Z,14.10
2022-10-31T19:05:41.695Z,14.00
2022-10-31T19:08:09.064Z,14.00
2022-10-31T19:10:37.550Z,14.00
2022-10-31T19:13:04.988Z,13.90
2022-10-31T19:15:33.366Z,13.90
2022-10-31T19:18:00.802Z,13.80
2022-10-31T19:20:28.147Z,13.80
2022-10-31T19:22:55.480Z,13.80
2022-10-31T19:25:22.797Z,13.80
2022-10-31T19:27:50.150Z,13.80
2022-10-31T19:30:17.480Z,13.70
2022-10-31T19:32:44.886Z,13.70
2022-10-31T19:35:12.193Z,13.60
2022-10-31T19:37:39.943Z,13.60
2022-10-31T19:40:08.703Z,13.60
2022-10-31T19:42:36.059Z,13.60
2022-10-31T19:45:03.832Z,13.50
2022-10-31T19:47:31.229Z,13.50
2022-10-31T19:49:58.544Z,13.50
2022-10-31T19:52:26.200Z,13.50
2022-10-31T19:54:53.559Z,13.40
2022-10-31T19:57:30.834Z,13.40
2022-10-31T20:00:08.976Z,13.40
2022-10-31T20:02:38.998Z,13.30
2022-10-31T20:05:06.563Z,13.40
2022-10-31T20:07:34.080Z,13.30
2022-10-31T20:10:01.423Z,13.30
2022-10-31T20:12:28.723Z,13.30
2022-10-31T20:14:56.067Z,13.20
2022-10-31T20:17:23.617Z,13.20
2022-10-31T20:19:51.058Z,13.20
2022-10-31T20:22:18.482Z,13.20
2022-10-31T20:24:45.821Z,13.20
2022-10-31T20:27:13.186Z,13.20
2022-10-31T20:29:40.812Z,13.20
2022-10-31T20:32:08.139Z,13.20
2022-10-31T20:34:35.577Z,13.20
2022-10-31T20:37:02.945Z,13.20
2022-10-31T20:39:30.287Z,13.20
2022-10-31T20:41:57.590Z,13.10
2022-10-31T20:44:24.998Z,13.10
2022-10-31T20:46:52.930Z,13.10
2022-10-31T20:49:20.225Z,13.10
2022-10-31T20:51:47.620Z,13.10
2022-10-31T20:54:15.297Z,13.10
2022-10-31T20:56:42.672Z,13.00
2022-10-31T20:59:10.084Z,13.00
2022-10-31T21:01:38.439Z,13.00
2022-10-31T21:04:08.638Z,13.00
2022-10-31T21:06:35.995Z,13.00
2022-10-31T21:09:03.620Z,12.90
2022-10-31T21:11:30.938Z,12.90
2022-10-31T21:13:58.706Z,12.90
2022-10-31T21:16:31.288Z,12.80
2022-10-31T21:19:00.033Z,12.80
2022-10-31T21:21:32.963Z,12.80
2022-10-31T21:24:07.868Z,12.80
2022-10-31T21:26:37.289Z,12.80
2022-10-31T21:29:04.928Z,12.70
2022-10-31T21:31:32.759Z,12.70
2022-10-31T21:34:00.113Z,12.70
2022-10-31T21:36:27.469Z,12.70
2022-10-31T21:38:55.120Z,12.70
2022-10-31T21:41:23.439Z,12.60
2022-10-31T21:43:51.346Z,12.60
2022-10-31T21:46:20.447Z,12.60
2022-10-31T21:48:47.798Z,12.60
2022-10-31T21:51:36.807Z,12.60
2022-10-31T21:54:23.054Z,12.60
2022-10-31T21:56:51.624Z,12.60
2022-10-31T21:59:18.986Z,12.60
2022-10-31T22:01:46.403Z,12.60
2022-10-31T22:04:13.820Z,12.60
2022-10-31T22:06:41.105Z,12.50
2022-10-31T22:09:09.113Z,12.50
2022-10-31T22:11:36.475Z,12.50
2022-10-31T22:14:04.883Z,12.50
2022-10-31T22:16:34.553Z,12.50
2022-10-31T22:19:05.456Z,12.50
2022-10-31T22:21:42.815Z,12.40
2022-10-31T22:24:10.273Z,12.40
2022-10-31T22:26:37.866Z,12.40
2022-10-31T22:29:06.838Z,12.30
2022-10-31T22:31:34.485Z,12.30
2022-10-31T22:34:01.855Z,12.30
2022-10-31T22:36:31.166Z,12.30
2022-10-31T22:38:58.664Z,12.20
2022-10-31T22:41:29.935Z,12.30
2022-10-31T22:43:57.412Z,12.20
2022-10-31T22:46:29.432Z,12.20
2022-10-31T22:48:58.933Z,12.20
2022-10-31T22:51:34.275Z,12.30
2022-10-31T22:54:01.680Z,12.20
2022-10-31T22:56:31.161Z,12.20
2022-10-31T22:58:58.841Z,12.20
2022-10-31T23:01:28.449Z,12.10
2022-10-31T23:03:55.989Z,12.10
2022-10-31T23:06:25.337Z,12.10
2022-10-31T23:08:52.825Z,12.10
2022-10-31T23:11:28.602Z,12.10
2022-10-31T23:14:08.919Z,12.10
2022-10-31T23:16:42.351Z,12.10
2022-10-31T23:19:10.616Z,12.10
2022-10-31T23:22:00.740Z,12.10
2022-10-31T23:24:36.686Z,12.00
2022-10-31T23:27:23.250Z,12.00
2022-10-31T23:29:54.633Z,12.00
2022-10-31T23:32:24.761Z,12.00
2022-10-31T23:34:59.797Z,12.00
2022-10-31T23:37:29.457Z,11.90
2022-10-31T23:39:56.817Z,11.90
2022-10-31T23:42:24.290Z,11.90
2022-10-31T23:44:51.742Z,11.90
2022-10-31T23:47:19.141Z,11.90
2022-10-31T23:49:46.514Z,11.80
2022-10-31T23:52:14.134Z,11.90
2022-10-31T23:54:41.591Z,11.90
2022-10-31T23:57:10.256Z,11.90
2022-10-31T23:59:37.537Z,11.90
